sensor_id;sensor_type;location;lat;lon;timestamp;temperature;humidity
36856;DHT22;22788;51.434;6.786;2023-07-28T05:41:30;18.90;99.90
36856;DHT22;22788;51.434;6.786;2023-07-28T05:43:57;18.90;99.90
36856;DHT22;22788;51.434;6.786;2023-07-28T14:35:36;21.70;99.90
36856;DHT22;22788;51.434;6.786;2023-07-28T14:38:01;21.80;99.90
36856;DHT22;22788;51.434;6.786;2023-07-28T14:40:27;21.70;99.90
36856;DHT22;22788;51.434;6.786;2023-07-28T14:42:53;21.60;99.90
36856;DHT22;22788;51.434;6.786;2023-07-28T14:45:18;21.60;99.90
36856;DHT22;22788;51.434;6.786;2023-07-28T14:47:44;21.60;99.90
36856;DHT22;22788;51.434;6.786;2023-07-28T14:50:10;21.50;99.90
36856;DHT22;22788;51.434;6.786;2023-07-28T14:52:38;21.60;99.90
36856;DHT22;22788;51.434;6.786;2023-07-28T14:55:04;21.50;99.90
36856;DHT22;22788;51.434;6.786;2023-07-28T14:57:30;21.60;99.90
36856;DHT22;22788;51.434;6.786;2023-07-28T14:59:55;21.50;99.90
36856;DHT22;22788;51.434;6.786;2023-07-28T15:02:21;21.50;99.90
36856;DHT22;22788;51.434;6.786;2023-07-28T15:04:47;21.40;99.90
36856;DHT22;22788;51.434;6.786;2023-07-28T15:07:12;21.30;99.90
36856;DHT22;22788;51.434;6.786;2023-07-28T15:09:39;21.30;99.90
36856;DHT22;22788;51.434;6.786;2023-07-28T15:12:05;21.40;99.90
36856;DHT22;22788;51.434;6.786;2023-07-28T15:14:31;21.40;99.90
36856;DHT22;22788;51.434;6.786;2023-07-28T15:16:57;21.40;99.90
36856;DHT22;22788;51.434;6.786;2023-07-28T15:19:22;21.40;99.90
36856;DHT22;22788;51.434;6.786;2023-07-28T15:21:48;21.40;99.90
36856;DHT22;22788;51.434;6.786;2023-07-28T15:24:14;21.30;99.90
36856;DHT22;22788;51.434;6.786;2023-07-28T15:26:41;21.40;99.90
36856;DHT22;22788;51.434;6.786;2023-07-28T15:29:07;21.30;99.90
36856;DHT22;22788;51.434;6.786;2023-07-28T15:31:32;21.40;99.90
36856;DHT22;22788;51.434;6.786;2023-07-28T15:33:58;21.40;99.90
36856;DHT22;22788;51.434;6.786;2023-07-28T15:36:23;21.20;99.90
36856;DHT22;22788;51.434;6.786;2023-07-28T15:38:49;21.30;99.90
36856;DHT22;22788;51.434;6.786;2023-07-28T15:41:15;21.30;99.90
36856;DHT22;22788;51.434;6.786;2023-07-28T15:43:42;21.20;99.90
36856;DHT22;22788;51.434;6.786;2023-07-28T15:46:07;21.20;99.90
36856;DHT22;22788;51.434;6.786;2023-07-28T15:48:33;21.30;99.90
36856;DHT22;22788;51.434;6.786;2023-07-28T15:50:59;21.30;99.90
36856;DHT22;22788;51.434;6.786;2023-07-28T15:53:24;21.30;99.90
36856;DHT22;22788;51.434;6.786;2023-07-28T15:55:50;21.20;99.90
36856;DHT22;22788;51.434;6.786;2023-07-28T15:58:15;21.30;99.90
36856;DHT22;22788;51.434;6.786;2023-07-28T16:00:43;21.30;99.90
36856;DHT22;22788;51.434;6.786;2023-07-28T16:03:08;21.30;99.90
36856;DHT22;22788;51.434;6.786;2023-07-28T16:05:34;21.30;99.90
36856;DHT22;22788;51.434;6.786;2023-07-28T16:07:59;21.30;99.90
36856;DHT22;22788;51.434;6.786;2023-07-28T16:10:25;21.40;99.90
36856;DHT22;22788;51.434;6.786;2023-07-28T16:12:51;21.40;99.90
36856;DHT22;22788;51.434;6.786;2023-07-28T16:15:16;21.30;99.90
36856;DHT22;22788;51.434;6.786;2023-07-28T16:17:43;21.30;99.90
36856;DHT22;22788;51.434;6.786;2023-07-28T16:20:10;21.30;99.90
36856;DHT22;22788;51.434;6.786;2023-07-28T16:22:35;21.30;99.90
36856;DHT22;22788;51.434;6.786;2023-07-28T16:25:01;21.20;99.90
36856;DHT22;22788;51.434;6.786;2023-07-28T16:27:27;21.30;99.90
36856;DHT22;22788;51.434;6.786;2023-07-28T16:29:52;21.20;99.90
36856;DHT22;22788;51.434;6.786;2023-07-28T16:32:18;21.30;99.90
36856;DHT22;22788;51.434;6.786;2023-07-28T16:34:45;21.20;99.90
36856;DHT22;22788;51.434;6.786;2023-07-28T16:37:12;21.30;99.90
36856;DHT22;22788;51.434;6.786;2023-07-28T16:39:37;21.30;99.90
36856;DHT22;22788;51.434;6.786;2023-07-28T16:42:03;21.20;99.90
36856;DHT22;22788;51.434;6.786;2023-07-28T16:44:29;21.20;99.90
36856;DHT22;22788;51.434;6.786;2023-07-28T16:46:54;21.20;99.90
36856;DHT22;22788;51.434;6.786;2023-07-28T16:49:20;21.20;99.90
36856;DHT22;22788;51.434;6.786;2023-07-28T16:51:47;21.30;99.90
36856;DHT22;22788;51.434;6.786;2023-07-28T16:54:12;21.20;99.90
36856;DHT22;22788;51.434;6.786;2023-07-28T16:56:38;21.30;99.90
36856;DHT22;22788;51.434;6.786;2023-07-28T16:59:04;21.30;99.90
36856;DHT22;22788;51.434;6.786;2023-07-28T17:01:29;21.20;99.90
36856;DHT22;22788;51.434;6.786;2023-07-28T17:03:55;21.30;99.90
36856;DHT22;22788;51.434;6.786;2023-07-28T17:06:20;21.30;99.90
36856;DHT22;22788;51.434;6.786;2023-07-28T17:17:57;21.30;99.90
36856;DHT22;22788;51.434;6.786;2023-07-28T17:29:32;21.30;99.90
36856;DHT22;22788;51.434;6.786;2023-07-28T17:31:57;21.30;99.90
36856;DHT22;22788;51.434;6.786;2023-07-28T17:34:24;21.20;99.90
36856;DHT22;22788;51.434;6.786;2023-07-28T17:36:50;21.20;99.90
36856;DHT22;22788;51.434;6.786;2023-07-28T17:39:15;21.20;99.90
36856;DHT22;22788;51.434;6.786;2023-07-28T17:41:41;21.10;99.90
36856;DHT22;22788;51.434;6.786;2023-07-28T17:44:07;21.10;99.90
36856;DHT22;22788;51.434;6.786;2023-07-28T17:46:32;21.00;99.90
36856;DHT22;22788;51.434;6.786;2023-07-28T17:48:58;21.10;99.90
36856;DHT22;22788;51.434;6.786;2023-07-28T17:51:25;21.00;99.90
36856;DHT22;22788;51.434;6.786;2023-07-28T17:53:50;21.10;99.90
36856;DHT22;22788;51.434;6.786;2023-07-28T17:56:16;21.00;99.90
36856;DHT22;22788;51.434;6.786;2023-07-28T17:58:42;21.10;99.90
36856;DHT22;22788;51.434;6.786;2023-07-28T18:01:07;21.10;99.90
36856;DHT22;22788;51.434;6.786;2023-07-28T18:03:33;21.10;99.90
36856;DHT22;22788;51.434;6.786;2023-07-28T18:05:58;21.10;99.90
36856;DHT22;22788;51.434;6.786;2023-07-28T18:08:25;21.10;99.90
36856;DHT22;22788;51.434;6.786;2023-07-28T18:10:51;21.20;99.90
36856;DHT22;22788;51.434;6.786;2023-07-28T18:13:17;21.10;99.90
36856;DHT22;22788;51.434;6.786;2023-07-28T18:15:43;21.10;99.90
36856;DHT22;22788;51.434;6.786;2023-07-28T18:18:08;21.10;99.90
36856;DHT22;22788;51.434;6.786;2023-07-28T18:20:34;21.10;99.90
36856;DHT22;22788;51.434;6.786;2023-07-28T18:23:00;21.10;99.90
36856;DHT22;22788;51.434;6.786;2023-07-28T18:25:27;21.10;99.90
36856;DHT22;22788;51.434;6.786;2023-07-28T18:27:53;21.10;99.90
36856;DHT22;22788;51.434;6.786;2023-07-28T18:30:18;21.10;99.90
36856;DHT22;22788;51.434;6.786;2023-07-28T18:32:44;21.10;99.90
36856;DHT22;22788;51.434;6.786;2023-07-28T18:35:10;21.10;99.90
36856;DHT22;22788;51.434;6.786;2023-07-28T18:37:36;21.10;99.90
36856;DHT22;22788;51.434;6.786;2023-07-28T18:40:01;21.10;99.90
36856;DHT22;22788;51.434;6.786;2023-07-28T18:42:28;21.10;99.90
36856;DHT22;22788;51.434;6.786;2023-07-28T18:44:54;21.10;99.90
36856;DHT22;22788;51.434;6.786;2023-07-28T18:47:20;21.10;99.90
36856;DHT22;22788;51.434;6.786;2023-07-28T18:49:45;21.00;99.90
36856;DHT22;22788;51.434;6.786;2023-07-28T18:52:12;21.10;99.90
36856;DHT22;22788;51.434;6.786;2023-07-28T18:54:38;21.00;99.90
36856;DHT22;22788;51.434;6.786;2023-07-28T18:57:04;21.00;99.90
36856;DHT22;22788;51.434;6.786;2023-07-28T18:59:31;21.00;99.90
36856;DHT22;22788;51.434;6.786;2023-07-28T19:01:57;20.90;99.90
36856;DHT22;22788;51.434;6.786;2023-07-28T19:04:22;20.90;99.90
36856;DHT22;22788;51.434;6.786;2023-07-28T19:06:48;20.90;99.90
36856;DHT22;22788;51.434;6.786;2023-07-28T19:09:13;20.80;99.90
36856;DHT22;22788;51.434;6.786;2023-07-28T19:11:39;20.80;99.90
36856;DHT22;22788;51.434;6.786;2023-07-28T19:14:05;20.80;99.90
36856;DHT22;22788;51.434;6.786;2023-07-28T19:16:32;20.80;99.90
36856;DHT22;22788;51.434;6.786;2023-07-28T19:18:57;20.80;99.90
36856;DHT22;22788;51.434;6.786;2023-07-28T19:21:23;20.80;99.90
36856;DHT22;22788;51.434;6.786;2023-07-28T19:23:48;20.80;99.90
36856;DHT22;22788;51.434;6.786;2023-07-28T19:26:14;20.90;99.90
36856;DHT22;22788;51.434;6.786;2023-07-28T19:28:40;20.80;99.90
36856;DHT22;22788;51.434;6.786;2023-07-28T19:31:05;20.80;99.90
36856;DHT22;22788;51.434;6.786;2023-07-28T19:33:33;20.80;99.90
36856;DHT22;22788;51.434;6.786;2023-07-28T19:35:59;20.80;99.90
36856;DHT22;22788;51.434;6.786;2023-07-28T19:38:25;20.80;99.90
36856;DHT22;22788;51.434;6.786;2023-07-28T19:40:50;20.80;99.90
36856;DHT22;22788;51.434;6.786;2023-07-28T19:43:16;20.80;99.90
36856;DHT22;22788;51.434;6.786;2023-07-28T19:45:42;20.80;99.90
36856;DHT22;22788;51.434;6.786;2023-07-28T19:48:07;20.80;99.90
36856;DHT22;22788;51.434;6.786;2023-07-28T19:50:35;20.80;99.90
36856;DHT22;22788;51.434;6.786;2023-07-28T19:53:01;20.80;99.90
36856;DHT22;22788;51.434;6.786;2023-07-28T19:55:27;20.70;99.90
36856;DHT22;22788;51.434;6.786;2023-07-28T19:57:52;20.80;99.90
36856;DHT22;22788;51.434;6.786;2023-07-28T20:00:18;20.70;99.90
36856;DHT22;22788;51.434;6.786;2023-07-28T20:02:43;20.70;99.90
36856;DHT22;22788;51.434;6.786;2023-07-28T20:05:09;20.70;99.90
36856;DHT22;22788;51.434;6.786;2023-07-28T20:07:36;20.70;99.90
36856;DHT22;22788;51.434;6.786;2023-07-28T20:10:02;20.70;99.90
36856;DHT22;22788;51.434;6.786;2023-07-28T20:12:28;20.70;99.90
36856;DHT22;22788;51.434;6.786;2023-07-28T20:14:53;20.70;99.90
36856;DHT22;22788;51.434;6.786;2023-07-28T20:17:19;20.70;99.90
36856;DHT22;22788;51.434;6.786;2023-07-28T20:19:44;20.70;99.90
36856;DHT22;22788;51.434;6.786;2023-07-28T20:22:10;20.70;99.90
36856;DHT22;22788;51.434;6.786;2023-07-28T20:24:37;20.60;99.90
36856;DHT22;22788;51.434;6.786;2023-07-28T20:27:03;20.60;99.90
36856;DHT22;22788;51.434;6.786;2023-07-28T20:29:29;20.60;99.90
36856;DHT22;22788;51.434;6.786;2023-07-28T20:31:54;20.60;99.90
36856;DHT22;22788;51.434;6.786;2023-07-28T20:34:20;20.60;99.90
36856;DHT22;22788;51.434;6.786;2023-07-28T20:36:46;20.70;99.90
36856;DHT22;22788;51.434;6.786;2023-07-28T20:39:11;20.60;99.90
36856;DHT22;22788;51.434;6.786;2023-07-28T20:41:38;20.60;99.90
36856;DHT22;22788;51.434;6.786;2023-07-28T20:44:04;20.60;99.90
36856;DHT22;22788;51.434;6.786;2023-07-28T20:46:30;20.60;99.90
36856;DHT22;22788;51.434;6.786;2023-07-28T20:48:56;20.60;99.90
36856;DHT22;22788;51.434;6.786;2023-07-28T20:51:21;20.60;99.90
36856;DHT22;22788;51.434;6.786;2023-07-28T20:53:47;20.60;99.90
36856;DHT22;22788;51.434;6.786;2023-07-28T20:56:12;20.60;99.90
36856;DHT22;22788;51.434;6.786;2023-07-28T20:58:39;20.60;99.90
36856;DHT22;22788;51.434;6.786;2023-07-28T21:01:05;20.60;99.90
36856;DHT22;22788;51.434;6.786;2023-07-28T21:03:31;20.60;99.90
36856;DHT22;22788;51.434;6.786;2023-07-28T21:05:56;20.50;99.90
36856;DHT22;22788;51.434;6.786;2023-07-28T21:08:22;20.60;99.90
36856;DHT22;22788;51.434;6.786;2023-07-28T21:10:47;20.60;99.90
36856;DHT22;22788;51.434;6.786;2023-07-28T21:13:13;20.60;99.90
36856;DHT22;22788;51.434;6.786;2023-07-28T21:15:40;20.60;99.90
36856;DHT22;22788;51.434;6.786;2023-07-28T21:18:06;20.50;99.90
36856;DHT22;22788;51.434;6.786;2023-07-28T21:20:31;20.50;99.90
36856;DHT22;22788;51.434;6.786;2023-07-28T21:22:57;20.50;99.90
36856;DHT22;22788;51.434;6.786;2023-07-28T21:25:22;20.50;99.90
36856;DHT22;22788;51.434;6.786;2023-07-28T21:27:48;20.50;99.90
36856;DHT22;22788;51.434;6.786;2023-07-28T21:30:14;20.50;99.90
36856;DHT22;22788;51.434;6.786;2023-07-28T21:32:41;20.60;99.90
36856;DHT22;22788;51.434;6.786;2023-07-28T21:35:07;20.50;99.90
36856;DHT22;22788;51.434;6.786;2023-07-28T21:37:33;20.50;99.90
36856;DHT22;22788;51.434;6.786;2023-07-28T21:39:59;20.50;99.90
36856;DHT22;22788;51.434;6.786;2023-07-28T21:42:24;20.50;99.90
36856;DHT22;22788;51.434;6.786;2023-07-28T21:44:50;20.50;99.90
36856;DHT22;22788;51.434;6.786;2023-07-28T21:47:15;20.60;99.90
36856;DHT22;22788;51.434;6.786;2023-07-28T21:49:42;20.60;99.90
36856;DHT22;22788;51.434;6.786;2023-07-28T21:52:08;20.60;99.90
36856;DHT22;22788;51.434;6.786;2023-07-28T21:54:33;20.50;99.90
36856;DHT22;22788;51.434;6.786;2023-07-28T21:56:59;20.50;99.90
36856;DHT22;22788;51.434;6.786;2023-07-28T21:59:25;20.50;99.90
36856;DHT22;22788;51.434;6.786;2023-07-28T22:01:51;20.50;99.90
36856;DHT22;22788;51.434;6.786;2023-07-28T22:04:16;20.50;99.90
36856;DHT22;22788;51.434;6.786;2023-07-28T22:06:43;20.50;99.90
36856;DHT22;22788;51.434;6.786;2023-07-28T22:09:09;20.50;99.90
36856;DHT22;22788;51.434;6.786;2023-07-28T22:11:35;20.50;99.90
36856;DHT22;22788;51.434;6.786;2023-07-28T22:14:00;20.40;99.90
36856;DHT22;22788;51.434;6.786;2023-07-28T22:16:26;20.50;99.90
36856;DHT22;22788;51.434;6.786;2023-07-28T22:18:51;20.40;99.90
36856;DHT22;22788;51.434;6.786;2023-07-28T22:21:17;20.40;99.90
36856;DHT22;22788;51.434;6.786;2023-07-28T22:23:44;20.40;99.90
36856;DHT22;22788;51.434;6.786;2023-07-28T22:26:09;20.40;99.90
36856;DHT22;22788;51.434;6.786;2023-07-28T22:28:35;20.40;99.90
36856;DHT22;22788;51.434;6.786;2023-07-28T22:31:01;20.40;99.90
36856;DHT22;22788;51.434;6.786;2023-07-28T22:33:26;20.40;99.90
36856;DHT22;22788;51.434;6.786;2023-07-28T22:35:52;20.40;99.90
36856;DHT22;22788;51.434;6.786;2023-07-28T22:38:17;20.40;99.90
36856;DHT22;22788;51.434;6.786;2023-07-28T22:40:44;20.40;99.90
36856;DHT22;22788;51.434;6.786;2023-07-28T22:43:10;20.40;99.90
36856;DHT22;22788;51.434;6.786;2023-07-28T22:45:36;20.40;99.90
36856;DHT22;22788;51.434;6.786;2023-07-28T22:48:02;20.40;99.90
36856;DHT22;22788;51.434;6.786;2023-07-28T22:50:27;20.30;99.90
36856;DHT22;22788;51.434;6.786;2023-07-28T22:52:53;20.30;99.90
36856;DHT22;22788;51.434;6.786;2023-07-28T22:55:19;20.30;99.90
36856;DHT22;22788;51.434;6.786;2023-07-28T22:57:46;20.30;99.90
36856;DHT22;22788;51.434;6.786;2023-07-28T23:00:15;20.30;99.90
36856;DHT22;22788;51.434;6.786;2023-07-28T23:02:40;20.30;99.90
36856;DHT22;22788;51.434;6.786;2023-07-28T23:05:07;20.30;99.90
36856;DHT22;22788;51.434;6.786;2023-07-28T23:07:32;20.30;99.90
36856;DHT22;22788;51.434;6.786;2023-07-28T23:09:58;20.30;99.90
36856;DHT22;22788;51.434;6.786;2023-07-28T23:12:24;20.30;99.90
36856;DHT22;22788;51.434;6.786;2023-07-28T23:14:51;20.20;99.90
36856;DHT22;22788;51.434;6.786;2023-07-28T23:17:16;20.20;99.90
36856;DHT22;22788;51.434;6.786;2023-07-28T23:19:42;20.20;99.90
36856;DHT22;22788;51.434;6.786;2023-07-28T23:22:07;20.20;99.90
36856;DHT22;22788;51.434;6.786;2023-07-28T23:24:33;20.20;99.90
36856;DHT22;22788;51.434;6.786;2023-07-28T23:26:59;20.20;99.90
36856;DHT22;22788;51.434;6.786;2023-07-28T23:29:24;20.20;99.90
36856;DHT22;22788;51.434;6.786;2023-07-28T23:31:51;20.20;99.90
36856;DHT22;22788;51.434;6.786;2023-07-28T23:34:17;20.20;99.90
36856;DHT22;22788;51.434;6.786;2023-07-28T23:36:42;20.20;99.90
36856;DHT22;22788;51.434;6.786;2023-07-28T23:39:08;20.20;99.90
36856;DHT22;22788;51.434;6.786;2023-07-28T23:41:34;20.10;99.90
36856;DHT22;22788;51.434;6.786;2023-07-28T23:43:59;20.10;99.90
36856;DHT22;22788;51.434;6.786;2023-07-28T23:46:25;20.10;99.90
36856;DHT22;22788;51.434;6.786;2023-07-28T23:48:52;20.10;99.90
36856;DHT22;22788;51.434;6.786;2023-07-28T23:51:17;20.30;99.90
36856;DHT22;22788;51.434;6.786;2023-07-28T23:53:43;20.10;99.90
36856;DHT22;22788;51.434;6.786;2023-07-28T23:56:09;20.10;99.90
36856;DHT22;22788;51.434;6.786;2023-07-28T23:58:34;20.10;99.90
